sensor_id;sensor_type;location;lat;lon;timestamp;pressure;altitude;pressure_sealevel;temperature;humidity
51829;BME280;37881;48.024;8.774;2023-05-23T00:01:37;93828.72;;;12.99;100.00
51829;BME280;37881;48.024;8.774;2023-05-23T00:04:04;93828.63;;;13.03;100.00
51829;BME280;37881;48.024;8.774;2023-05-23T00:06:32;93820.28;;;13.06;100.00
51829;BME280;37881;48.024;8.774;2023-05-23T00:09:00;93825.00;;;13.06;100.00
51829;BME280;37881;48.024;8.774;2023-05-23T00:11:26;93822.56;;;13.08;100.00
51829;BME280;37881;48.024;8.774;2023-05-23T00:13:55;93817.53;;;13.06;100.00
51829;BME280;37881;48.024;8.774;2023-05-23T00:16:23;93822.22;;;13.06;100.00
51829;BME280;37881;48.024;8.774;2023-05-23T00:18:49;93825.00;;;13.06;100.00
51829;BME280;37881;48.024;8.774;2023-05-23T00:21:17;93828.97;;;13.05;100.00
51829;BME280;37881;48.024;8.774;2023-05-23T00:23:44;93821.88;;;13.04;100.00
51829;BME280;37881;48.024;8.774;2023-05-23T00:26:10;93822.69;;;13.04;100.00
51829;BME280;37881;48.024;8.774;2023-05-23T00:28:37;93816.50;;;13.00;100.00
51829;BME280;37881;48.024;8.774;2023-05-23T00:31:04;93827.53;;;13.00;100.00
51829;BME280;37881;48.024;8.774;2023-05-23T00:33:31;93823.19;;;12.99;100.00
51829;BME280;37881;48.024;8.774;2023-05-23T00:35:59;93823.97;;;12.99;100.00
51829;BME280;37881;48.024;8.774;2023-05-23T00:38:26;93823.13;;;13.03;100.00
51829;BME280;37881;48.024;8.774;2023-05-23T00:40:53;93833.78;;;13.01;100.00
51829;BME280;37881;48.024;8.774;2023-05-23T00:43:20;93827.78;;;12.89;100.00
51829;BME280;37881;48.024;8.774;2023-05-23T00:45:48;93835.34;;;12.85;100.00
51829;BME280;37881;48.024;8.774;2023-05-23T00:48:15;93825.91;;;12.86;100.00
51829;BME280;37881;48.024;8.774;2023-05-23T00:50:42;93825.47;;;12.88;100.00
51829;BME280;37881;48.024;8.774;2023-05-23T00:53:09;93830.56;;;12.73;100.00
51829;BME280;37881;48.024;8.774;2023-05-23T00:55:36;93837.00;;;12.83;100.00
51829;BME280;37881;48.024;8.774;2023-05-23T00:58:03;93834.59;;;12.85;100.00
51829;BME280;37881;48.024;8.774;2023-05-23T01:00:31;93836.56;;;12.84;100.00
51829;BME280;37881;48.024;8.774;2023-05-23T01:02:59;93834.75;;;12.77;100.00
51829;BME280;37881;48.024;8.774;2023-05-23T01:05:26;93840.72;;;12.76;100.00
51829;BME280;37881;48.024;8.774;2023-05-23T01:07:53;93843.13;;;12.74;100.00
51829;BME280;37881;48.024;8.774;2023-05-23T01:10:22;93838.56;;;12.51;100.00
51829;BME280;37881;48.024;8.774;2023-05-23T01:18:39;93842.00;;;12.38;100.00
51829;BME280;37881;48.024;8.774;2023-05-23T01:21:20;93848.38;;;12.35;100.00
51829;BME280;37881;48.024;8.774;2023-05-23T01:24:12;93839.66;;;12.37;100.00
51829;BME280;37881;48.024;8.774;2023-05-23T01:26:59;93843.56;;;12.39;100.00
51829;BME280;37881;48.024;8.774;2023-05-23T01:31:56;93833.66;;;12.42;100.00
51829;BME280;37881;48.024;8.774;2023-05-23T01:34:23;93836.75;;;12.44;100.00
51829;BME280;37881;48.024;8.774;2023-05-23T01:36:53;93836.00;;;12.44;100.00
51829;BME280;37881;48.024;8.774;2023-05-23T01:39:21;93835.19;;;12.43;100.00
51829;BME280;37881;48.024;8.774;2023-05-23T01:41:50;93829.69;;;12.43;100.00
51829;BME280;37881;48.024;8.774;2023-05-23T01:44:17;93837.53;;;12.45;100.00
51829;BME280;37881;48.024;8.774;2023-05-23T01:46:47;93835.19;;;12.43;100.00
51829;BME280;37881;48.024;8.774;2023-05-23T01:49:15;93835.31;;;12.39;100.00
51829;BME280;37881;48.024;8.774;2023-05-23T01:51:43;93836.06;;;12.40;100.00
51829;BME280;37881;48.024;8.774;2023-05-23T01:54:12;93839.75;;;12.33;100.00
51829;BME280;37881;48.024;8.774;2023-05-23T01:56:42;93840.88;;;12.36;100.00
51829;BME280;37881;48.024;8.774;2023-05-23T01:59:09;93840.47;;;12.37;100.00
51829;BME280;37881;48.024;8.774;2023-05-23T02:01:37;93836.91;;;12.37;100.00
51829;BME280;37881;48.024;8.774;2023-05-23T02:04:04;93830.63;;;12.36;100.00
51829;BME280;37881;48.024;8.774;2023-05-23T02:06:31;93829.69;;;12.27;100.00
51829;BME280;37881;48.024;8.774;2023-05-23T02:08:57;93828.56;;;12.24;100.00
51829;BME280;37881;48.024;8.774;2023-05-23T02:11:24;93833.72;;;12.22;100.00
51829;BME280;37881;48.024;8.774;2023-05-23T02:13:52;93833.38;;;12.20;100.00
51829;BME280;37881;48.024;8.774;2023-05-23T02:16:19;93837.25;;;12.23;100.00
51829;BME280;37881;48.024;8.774;2023-05-23T02:18:45;93846.66;;;12.05;100.00
51829;BME280;37881;48.024;8.774;2023-05-23T02:21:12;93840.72;;;11.90;100.00
51829;BME280;37881;48.024;8.774;2023-05-23T02:23:40;93834.81;;;12.08;100.00
51829;BME280;37881;48.024;8.774;2023-05-23T02:26:07;93836.97;;;12.17;100.00
51829;BME280;37881;48.024;8.774;2023-05-23T02:28:34;93836.06;;;12.24;100.00
51829;BME280;37881;48.024;8.774;2023-05-23T02:31:01;93836.22;;;12.33;100.00
51829;BME280;37881;48.024;8.774;2023-05-23T02:33:28;93844.75;;;12.38;100.00
51829;BME280;37881;48.024;8.774;2023-05-23T02:35:55;93844.66;;;12.42;100.00
51829;BME280;37881;48.024;8.774;2023-05-23T02:38:22;93845.00;;;12.44;100.00
51829;BME280;37881;48.024;8.774;2023-05-23T02:40:48;93848.53;;;12.45;100.00
51829;BME280;37881;48.024;8.774;2023-05-23T02:43:17;93857.13;;;12.47;100.00
51829;BME280;37881;48.024;8.774;2023-05-23T02:45:44;93851.63;;;12.47;100.00
51829;BME280;37881;48.024;8.774;2023-05-23T02:48:11;93849.41;;;12.42;100.00
51829;BME280;37881;48.024;8.774;2023-05-23T02:50:37;93847.84;;;12.41;100.00
51829;BME280;37881;48.024;8.774;2023-05-23T02:53:04;93845.63;;;12.35;100.00
51829;BME280;37881;48.024;8.774;2023-05-23T02:55:31;93848.94;;;12.27;100.00
51829;BME280;37881;48.024;8.774;2023-05-23T02:57:58;93854.03;;;12.28;100.00
51829;BME280;37881;48.024;8.774;2023-05-23T03:00:24;93865.38;;;12.30;100.00
51829;BME280;37881;48.024;8.774;2023-05-23T03:02:51;93858.50;;;12.38;100.00
51829;BME280;37881;48.024;8.774;2023-05-23T03:05:18;93862.28;;;12.45;100.00
51829;BME280;37881;48.024;8.774;2023-05-23T03:07:45;93865.31;;;12.50;100.00
51829;BME280;37881;48.024;8.774;2023-05-23T03:10:11;93865.25;;;12.54;100.00
51829;BME280;37881;48.024;8.774;2023-05-23T03:12:38;93848.97;;;12.59;100.00
51829;BME280;37881;48.024;8.774;2023-05-23T03:15:05;93865.41;;;12.63;100.00
51829;BME280;37881;48.024;8.774;2023-05-23T03:17:32;93860.22;;;12.65;100.00
51829;BME280;37881;48.024;8.774;2023-05-23T03:19:59;93866.28;;;12.60;100.00
51829;BME280;37881;48.024;8.774;2023-05-23T03:22:25;93855.25;;;12.60;100.00
51829;BME280;37881;48.024;8.774;2023-05-23T03:24:52;93856.78;;;12.61;100.00
51829;BME280;37881;48.024;8.774;2023-05-23T03:27:19;93854.47;;;12.59;100.00
51829;BME280;37881;48.024;8.774;2023-05-23T03:29:45;93856.97;;;12.54;100.00
51829;BME280;37881;48.024;8.774;2023-05-23T03:32:13;93857.66;;;12.58;100.00
51829;BME280;37881;48.024;8.774;2023-05-23T03:34:40;93862.66;;;12.63;100.00
51829;BME280;37881;48.024;8.774;2023-05-23T03:37:07;93861.53;;;12.61;100.00
51829;BME280;37881;48.024;8.774;2023-05-23T03:39:33;93862.03;;;12.55;100.00
51829;BME280;37881;48.024;8.774;2023-05-23T03:42:02;93866.63;;;12.62;100.00
51829;BME280;37881;48.024;8.774;2023-05-23T03:44:29;93871.69;;;12.64;100.00
51829;BME280;37881;48.024;8.774;2023-05-23T03:46:55;93870.41;;;12.68;100.00
51829;BME280;37881;48.024;8.774;2023-05-23T03:49:22;93869.88;;;12.73;100.00
51829;BME280;37881;48.024;8.774;2023-05-23T03:51:49;93871.06;;;12.89;100.00
51829;BME280;37881;48.024;8.774;2023-05-23T03:54:16;93866.34;;;12.89;100.00
51829;BME280;37881;48.024;8.774;2023-05-23T03:56:43;93869.88;;;12.90;100.00
51829;BME280;37881;48.024;8.774;2023-05-23T03:59:10;93871.75;;;12.93;100.00
51829;BME280;37881;48.024;8.774;2023-05-23T04:01:36;93867.97;;;13.03;100.00
51829;BME280;37881;48.024;8.774;2023-05-23T04:04:04;93870.47;;;13.14;100.00
51829;BME280;37881;48.024;8.774;2023-05-23T04:06:30;93860.47;;;13.20;100.00
51829;BME280;37881;48.024;8.774;2023-05-23T04:08:58;93864.41;;;13.19;100.00
51829;BME280;37881;48.024;8.774;2023-05-23T04:11:25;93865.97;;;13.20;100.00
51829;BME280;37881;48.024;8.774;2023-05-23T04:13:52;93872.31;;;13.33;100.00
51829;BME280;37881;48.024;8.774;2023-05-23T04:16:19;93869.06;;;13.38;100.00
51829;BME280;37881;48.024;8.774;2023-05-23T04:18:48;93873.25;;;13.43;100.00
51829;BME280;37881;48.024;8.774;2023-05-23T04:21:15;93865.31;;;13.45;100.00
51829;BME280;37881;48.024;8.774;2023-05-23T04:23:42;93866.88;;;13.46;100.00
51829;BME280;37881;48.024;8.774;2023-05-23T04:26:08;93866.25;;;13.55;100.00
51829;BME280;37881;48.024;8.774;2023-05-23T04:28:35;93872.69;;;13.65;100.00
51829;BME280;37881;48.024;8.774;2023-05-23T04:31:03;93880.94;;;13.65;100.00
51829;BME280;37881;48.024;8.774;2023-05-23T04:33:30;93877.06;;;13.62;100.00
51829;BME280;37881;48.024;8.774;2023-05-23T04:36:00;93880.22;;;13.48;100.00
51829;BME280;37881;48.024;8.774;2023-05-23T04:38:26;93872.06;;;13.44;100.00
51829;BME280;37881;48.024;8.774;2023-05-23T04:40:53;93884.63;;;13.45;100.00
51829;BME280;37881;48.024;8.774;2023-05-23T04:43:20;93883.56;;;13.55;100.00
51829;BME280;37881;48.024;8.774;2023-05-23T04:45:47;93878.72;;;13.59;100.00
51829;BME280;37881;48.024;8.774;2023-05-23T04:48:16;93884.84;;;13.80;100.00
51829;BME280;37881;48.024;8.774;2023-05-23T04:50:47;93880.13;;;13.81;100.00
51829;BME280;37881;48.024;8.774;2023-05-23T04:53:16;93879.59;;;13.98;100.00
51829;BME280;37881;48.024;8.774;2023-05-23T04:55:43;93876.75;;;14.15;100.00
51829;BME280;37881;48.024;8.774;2023-05-23T04:58:10;93885.94;;;14.25;100.00
51829;BME280;37881;48.024;8.774;2023-05-23T05:00:38;93889.81;;;14.40;100.00
51829;BME280;37881;48.024;8.774;2023-05-23T05:03:05;93882.75;;;14.52;100.00
51829;BME280;37881;48.024;8.774;2023-05-23T05:05:35;93886.59;;;14.42;100.00
51829;BME280;37881;48.024;8.774;2023-05-23T05:08:02;93883.84;;;14.42;100.00
51829;BME280;37881;48.024;8.774;2023-05-23T05:10:29;93881.13;;;14.67;100.00
51829;BME280;37881;48.024;8.774;2023-05-23T05:12:56;93880.00;;;14.77;100.00
51829;BME280;37881;48.024;8.774;2023-05-23T05:15:22;93886.72;;;14.76;100.00
51829;BME280;37881;48.024;8.774;2023-05-23T05:17:49;93890.50;;;14.70;100.00
51829;BME280;37881;48.024;8.774;2023-05-23T05:20:16;93882.31;;;14.79;100.00
51829;BME280;37881;48.024;8.774;2023-05-23T05:22:44;93885.78;;;15.18;100.00
51829;BME280;37881;48.024;8.774;2023-05-23T05:25:11;93883.28;;;15.46;100.00
51829;BME280;37881;48.024;8.774;2023-05-23T05:27:38;93887.47;;;15.15;100.00
51829;BME280;37881;48.024;8.774;2023-05-23T05:30:08;93894.34;;;15.46;100.00
51829;BME280;37881;48.024;8.774;2023-05-23T05:32:35;93885.25;;;16.02;100.00
51829;BME280;37881;48.024;8.774;2023-05-23T05:35:02;93880.41;;;15.93;100.00
51829;BME280;37881;48.024;8.774;2023-05-23T05:37:29;93879.50;;;16.18;100.00
51829;BME280;37881;48.024;8.774;2023-05-23T05:39:56;93879.97;;;16.17;100.00
51829;BME280;37881;48.024;8.774;2023-05-23T05:42:24;93888.69;;;16.06;100.00
51829;BME280;37881;48.024;8.774;2023-05-23T05:44:51;93891.25;;;15.44;100.00
51829;BME280;37881;48.024;8.774;2023-05-23T05:47:18;93901.94;;;15.20;100.00
51829;BME280;37881;48.024;8.774;2023-05-23T05:49:44;93903.97;;;15.41;100.00
51829;BME280;37881;48.024;8.774;2023-05-23T05:52:11;93898.44;;;15.41;100.00
51829;BME280;37881;48.024;8.774;2023-05-23T05:54:38;93901.44;;;15.34;100.00
51829;BME280;37881;48.024;8.774;2023-05-23T05:57:04;93902.50;;;15.84;100.00
51829;BME280;37881;48.024;8.774;2023-05-23T05:59:31;93893.75;;;16.08;100.00
51829;BME280;37881;48.024;8.774;2023-05-23T06:01:58;93896.19;;;16.59;100.00
51829;BME280;37881;48.024;8.774;2023-05-23T06:04:25;93899.53;;;16.54;100.00
51829;BME280;37881;48.024;8.774;2023-05-23T06:06:52;93907.38;;;16.55;100.00
51829;BME280;37881;48.024;8.774;2023-05-23T06:09:18;93896.28;;;17.64;100.00
51829;BME280;37881;48.024;8.774;2023-05-23T06:11:45;93896.28;;;17.64;100.00
51829;BME280;37881;48.024;8.774;2023-05-23T06:14:12;93902.81;;;17.02;100.00
51829;BME280;37881;48.024;8.774;2023-05-23T06:16:39;93904.50;;;17.00;100.00
51829;BME280;37881;48.024;8.774;2023-05-23T06:19:07;93899.03;;;16.77;100.00
51829;BME280;37881;48.024;8.774;2023-05-23T06:21:34;93909.19;;;16.40;100.00
51829;BME280;37881;48.024;8.774;2023-05-23T06:24:01;93913.13;;;15.51;100.00
51829;BME280;37881;48.024;8.774;2023-05-23T06:26:28;93918.09;;;15.56;100.00
51829;BME280;37881;48.024;8.774;2023-05-23T06:28:55;93914.44;;;15.94;100.00
51829;BME280;37881;48.024;8.774;2023-05-23T06:31:21;93915.91;;;16.08;100.00
51829;BME280;37881;48.024;8.774;2023-05-23T06:33:48;93919.25;;;16.03;100.00
51829;BME280;37881;48.024;8.774;2023-05-23T06:36:15;93920.97;;;15.87;100.00
51829;BME280;37881;48.024;8.774;2023-05-23T06:38:42;93910.28;;;16.21;100.00
51829;BME280;37881;48.024;8.774;2023-05-23T06:41:08;93915.31;;;16.13;100.00
51829;BME280;37881;48.024;8.774;2023-05-23T06:43:35;93922.97;;;15.87;100.00
51829;BME280;37881;48.024;8.774;2023-05-23T06:46:02;93917.72;;;15.80;100.00
51829;BME280;37881;48.024;8.774;2023-05-23T06:48:29;93920.97;;;16.09;100.00
51829;BME280;37881;48.024;8.774;2023-05-23T06:50:56;93916.06;;;16.67;100.00
51829;BME280;37881;48.024;8.774;2023-05-23T06:53:22;93913.84;;;16.84;100.00
51829;BME280;37881;48.024;8.774;2023-05-23T06:55:49;93920.63;;;16.83;100.00
51829;BME280;37881;48.024;8.774;2023-05-23T06:58:16;93910.94;;;16.56;100.00
51829;BME280;37881;48.024;8.774;2023-05-23T07:00:43;93922.25;;;15.95;100.00
51829;BME280;37881;48.024;8.774;2023-05-23T07:03:10;93926.06;;;16.64;100.00
51829;BME280;37881;48.024;8.774;2023-05-23T07:05:36;93922.50;;;16.64;100.00
51829;BME280;37881;48.024;8.774;2023-05-23T07:08:07;93929.53;;;16.24;100.00
51829;BME280;37881;48.024;8.774;2023-05-23T07:10:36;93926.66;;;16.59;100.00
51829;BME280;37881;48.024;8.774;2023-05-23T07:13:04;93927.78;;;16.71;100.00
51829;BME280;37881;48.024;8.774;2023-05-23T07:15:31;93931.69;;;16.51;100.00
51829;BME280;37881;48.024;8.774;2023-05-23T07:17:58;93939.97;;;16.42;100.00
51829;BME280;37881;48.024;8.774;2023-05-23T07:20:25;93940.47;;;16.28;100.00
51829;BME280;37881;48.024;8.774;2023-05-23T07:22:51;93931.06;;;16.47;100.00
51829;BME280;37881;48.024;8.774;2023-05-23T07:25:18;93927.28;;;16.63;100.00
51829;BME280;37881;48.024;8.774;2023-05-23T07:27:45;93929.06;;;16.79;100.00
51829;BME280;37881;48.024;8.774;2023-05-23T07:30:12;93923.47;;;17.01;100.00
51829;BME280;37881;48.024;8.774;2023-05-23T07:32:39;93920.78;;;17.29;100.00
51829;BME280;37881;48.024;8.774;2023-05-23T07:35:06;93918.97;;;17.72;100.00
51829;BME280;37881;48.024;8.774;2023-05-23T07:37:33;93924.25;;;17.98;100.00
51829;BME280;37881;48.024;8.774;2023-05-23T07:40:00;93929.94;;;18.12;100.00
51829;BME280;37881;48.024;8.774;2023-05-23T07:42:27;93921.25;;;18.38;100.00
51829;BME280;37881;48.024;8.774;2023-05-23T07:44:54;93923.97;;;19.18;100.00
51829;BME280;37881;48.024;8.774;2023-05-23T07:47:20;93924.56;;;19.46;100.00
51829;BME280;37881;48.024;8.774;2023-05-23T07:49:47;93915.84;;;19.29;100.00
51829;BME280;37881;48.024;8.774;2023-05-23T07:52:14;93914.41;;;21.10;100.00
51829;BME280;37881;48.024;8.774;2023-05-23T07:54:41;93915.66;;;22.73;100.00
51829;BME280;37881;48.024;8.774;2023-05-23T07:57:08;93908.06;;;25.25;84.93
51829;BME280;37881;48.024;8.774;2023-05-23T07:59:35;93909.84;;;25.05;78.97
51829;BME280;37881;48.024;8.774;2023-05-23T08:02:02;93913.91;;;24.76;79.87
51829;BME280;37881;48.024;8.774;2023-05-23T08:04:29;93899.97;;;26.02;74.18
51829;BME280;37881;48.024;8.774;2023-05-23T08:06:56;93899.38;;;25.34;73.15
51829;BME280;37881;48.024;8.774;2023-05-23T08:09:31;93901.81;;;24.30;76.27
51829;BME280;37881;48.024;8.774;2023-05-23T08:11:57;93897.59;;;26.18;69.87
51829;BME280;37881;48.024;8.774;2023-05-23T08:14:25;93901.69;;;25.30;70.73
51829;BME280;37881;48.024;8.774;2023-05-23T08:17:12;93905.63;;;23.67;76.36
51829;BME280;37881;48.024;8.774;2023-05-23T08:19:39;93897.63;;;26.65;66.58
51829;BME280;37881;48.024;8.774;2023-05-23T08:22:07;93897.66;;;28.81;57.92
51829;BME280;37881;48.024;8.774;2023-05-23T08:24:34;93904.56;;;27.79;54.60
51829;BME280;37881;48.024;8.774;2023-05-23T08:27:01;93902.94;;;27.89;57.11
51829;BME280;37881;48.024;8.774;2023-05-23T08:29:27;93903.97;;;27.86;55.19
51829;BME280;37881;48.024;8.774;2023-05-23T08:31:54;93908.41;;;26.97;60.52
51829;BME280;37881;48.024;8.774;2023-05-23T08:34:21;93906.28;;;26.73;64.38
51829;BME280;37881;48.024;8.774;2023-05-23T08:36:48;93909.00;;;25.61;68.37
51829;BME280;37881;48.024;8.774;2023-05-23T08:39:14;93910.09;;;25.36;64.72
51829;BME280;37881;48.024;8.774;2023-05-23T08:41:41;93918.19;;;25.67;63.31
51829;BME280;37881;48.024;8.774;2023-05-23T08:44:08;93913.91;;;25.27;63.52
51829;BME280;37881;48.024;8.774;2023-05-23T08:46:42;93914.78;;;26.03;65.35
51829;BME280;37881;48.024;8.774;2023-05-23T08:49:11;93913.28;;;27.26;60.08
51829;BME280;37881;48.024;8.774;2023-05-23T08:51:42;93918.44;;;27.77;58.30
51829;BME280;37881;48.024;8.774;2023-05-23T08:54:09;93915.03;;;26.05;62.84
51829;BME280;37881;48.024;8.774;2023-05-23T08:56:39;93919.91;;;26.04;64.28
51829;BME280;37881;48.024;8.774;2023-05-23T08:59:08;93923.56;;;28.03;57.29
51829;BME280;37881;48.024;8.774;2023-05-23T09:01:36;93923.47;;;26.05;61.48
51829;BME280;37881;48.024;8.774;2023-05-23T09:04:05;93921.13;;;26.15;61.11
51829;BME280;37881;48.024;8.774;2023-05-23T09:06:33;93929.91;;;25.88;60.16
51829;BME280;37881;48.024;8.774;2023-05-23T09:09:00;93930.69;;;26.95;56.89
51829;BME280;37881;48.024;8.774;2023-05-23T09:11:27;93939.19;;;25.33;59.77
51829;BME280;37881;48.024;8.774;2023-05-23T09:13:54;93935.84;;;25.62;61.19
51829;BME280;37881;48.024;8.774;2023-05-23T09:16:21;93933.63;;;26.19;56.21
51829;BME280;37881;48.024;8.774;2023-05-23T09:18:48;93933.53;;;28.67;52.89
51829;BME280;37881;48.024;8.774;2023-05-23T09:21:15;93934.44;;;28.94;47.94
51829;BME280;37881;48.024;8.774;2023-05-23T09:23:42;93937.38;;;27.22;54.12
51829;BME280;37881;48.024;8.774;2023-05-23T09:26:10;93941.72;;;28.27;53.53
51829;BME280;37881;48.024;8.774;2023-05-23T09:28:38;93941.28;;;28.23;51.75
51829;BME280;37881;48.024;8.774;2023-05-23T09:31:07;93941.44;;;26.49;53.64
51829;BME280;37881;48.024;8.774;2023-05-23T09:33:48;93947.38;;;25.14;60.55
51829;BME280;37881;48.024;8.774;2023-05-23T09:36:16;93943.50;;;24.66;62.96
51829;BME280;37881;48.024;8.774;2023-05-23T09:38:45;93958.72;;;23.45;71.19
51829;BME280;37881;48.024;8.774;2023-05-23T09:41:12;93945.44;;;22.50;78.58
51829;BME280;37881;48.024;8.774;2023-05-23T09:44:03;93942.00;;;21.93;86.48
51829;BME280;37881;48.024;8.774;2023-05-23T09:46:34;93939.34;;;21.49;86.71
51829;BME280;37881;48.024;8.774;2023-05-23T09:49:14;93947.28;;;23.11;78.64
51829;BME280;37881;48.024;8.774;2023-05-23T09:51:41;93939.69;;;21.71;83.62
51829;BME280;37881;48.024;8.774;2023-05-23T09:54:08;93942.16;;;21.49;89.73
51829;BME280;37881;48.024;8.774;2023-05-23T09:56:38;93938.72;;;23.20;79.47
51829;BME280;37881;48.024;8.774;2023-05-23T09:59:07;93932.75;;;21.31;87.35
51829;BME280;37881;48.024;8.774;2023-05-23T10:01:36;93931.63;;;22.20;83.37
51829;BME280;37881;48.024;8.774;2023-05-23T10:04:04;93929.31;;;22.19;83.32
51829;BME280;37881;48.024;8.774;2023-05-23T10:06:46;93930.78;;;22.34;78.78
51829;BME280;37881;48.024;8.774;2023-05-23T10:09:16;93920.34;;;24.05;72.00
51829;BME280;37881;48.024;8.774;2023-05-23T10:14:34;93915.03;;;24.13;70.51
51829;BME280;37881;48.024;8.774;2023-05-23T10:17:12;93914.75;;;26.14;61.51
51829;BME280;37881;48.024;8.774;2023-05-23T10:19:48;93911.03;;;25.72;62.24
51829;BME280;37881;48.024;8.774;2023-05-23T10:22:19;93909.06;;;25.16;61.39
51829;BME280;37881;48.024;8.774;2023-05-23T10:24:47;93911.06;;;24.54;61.93
51829;BME280;37881;48.024;8.774;2023-05-23T10:27:14;93920.09;;;24.03;62.83
51829;BME280;37881;48.024;8.774;2023-05-23T10:29:42;93908.81;;;23.92;67.25
51829;BME280;37881;48.024;8.774;2023-05-23T10:32:09;93901.91;;;26.30;56.42
51829;BME280;37881;48.024;8.774;2023-05-23T10:41:03;93898.56;;;24.55;63.43
51829;BME280;37881;48.024;8.774;2023-05-23T10:43:49;93901.97;;;26.13;57.39
51829;BME280;37881;48.024;8.774;2023-05-23T10:46:21;93893.72;;;27.04;53.59
51829;BME280;37881;48.024;8.774;2023-05-23T10:48:53;93897.00;;;25.55;56.63
51829;BME280;37881;48.024;8.774;2023-05-23T10:51:22;93893.97;;;24.63;62.08
51829;BME280;37881;48.024;8.774;2023-05-23T10:53:53;93894.00;;;24.74;63.29
51829;BME280;37881;48.024;8.774;2023-05-23T10:56:23;93892.41;;;23.73;67.04
51829;BME280;37881;48.024;8.774;2023-05-23T10:58:54;93889.03;;;24.18;63.25
51829;BME280;37881;48.024;8.774;2023-05-23T11:01:21;93886.47;;;23.60;67.87
51829;BME280;37881;48.024;8.774;2023-05-23T11:03:51;93881.06;;;23.45;70.83
51829;BME280;37881;48.024;8.774;2023-05-23T11:09:15;93895.31;;;23.04;70.93
51829;BME280;37881;48.024;8.774;2023-05-23T11:14:32;93886.91;;;21.38;78.04
51829;BME280;37881;48.024;8.774;2023-05-23T11:19:38;93895.94;;;22.88;75.57
51829;BME280;37881;48.024;8.774;2023-05-23T11:22:08;93891.25;;;23.05;76.32
51829;BME280;37881;48.024;8.774;2023-05-23T11:24:55;93883.47;;;24.35;72.21
51829;BME280;37881;48.024;8.774;2023-05-23T11:30:09;93899.84;;;22.18;82.26
51829;BME280;37881;48.024;8.774;2023-05-23T11:32:36;93907.59;;;21.11;85.76
51829;BME280;37881;48.024;8.774;2023-05-23T11:35:08;93925.72;;;21.92;79.42
51829;BME280;37881;48.024;8.774;2023-05-23T11:37:38;93909.56;;;22.74;74.21
51829;BME280;37881;48.024;8.774;2023-05-23T11:42:55;93919.03;;;23.52;73.51
51829;BME280;37881;48.024;8.774;2023-05-23T11:45:22;93914.63;;;23.40;72.73
51829;BME280;37881;48.024;8.774;2023-05-23T11:47:49;93911.59;;;23.43;73.09
51829;BME280;37881;48.024;8.774;2023-05-23T11:50:16;93922.69;;;22.94;75.37
51829;BME280;37881;48.024;8.774;2023-05-23T11:52:43;93915.50;;;22.56;75.60
51829;BME280;37881;48.024;8.774;2023-05-23T11:55:12;93913.22;;;21.31;82.24
51829;BME280;37881;48.024;8.774;2023-05-23T11:57:38;93917.34;;;21.71;81.96
51829;BME280;37881;48.024;8.774;2023-05-23T12:00:07;93923.06;;;21.83;83.36
51829;BME280;37881;48.024;8.774;2023-05-23T12:02:41;93922.88;;;21.15;83.91
51829;BME280;37881;48.024;8.774;2023-05-23T12:05:10;93923.91;;;20.68;88.44
51829;BME280;37881;48.024;8.774;2023-05-23T12:07:40;93930.78;;;20.58;87.77
51829;BME280;37881;48.024;8.774;2023-05-23T12:10:09;93919.78;;;21.84;81.77
51829;BME280;37881;48.024;8.774;2023-05-23T12:12:37;93925.38;;;21.13;84.60
51829;BME280;37881;48.024;8.774;2023-05-23T12:15:04;93916.97;;;22.05;79.00
51829;BME280;37881;48.024;8.774;2023-05-23T12:17:31;93923.25;;;22.20;77.20
51829;BME280;37881;48.024;8.774;2023-05-23T12:19:59;93914.59;;;21.98;76.80
51829;BME280;37881;48.024;8.774;2023-05-23T12:22:27;93917.97;;;22.48;74.32
51829;BME280;37881;48.024;8.774;2023-05-23T12:24:57;93909.88;;;22.82;70.06
51829;BME280;37881;48.024;8.774;2023-05-23T12:27:34;93908.31;;;23.07;69.14
51829;BME280;37881;48.024;8.774;2023-05-23T12:30:19;93897.91;;;23.13;70.54
51829;BME280;37881;48.024;8.774;2023-05-23T12:32:46;93895.81;;;21.98;76.01
51829;BME280;37881;48.024;8.774;2023-05-23T12:35:13;93892.66;;;22.63;74.41
51829;BME280;37881;48.024;8.774;2023-05-23T12:37:44;93893.44;;;22.96;73.49
51829;BME280;37881;48.024;8.774;2023-05-23T12:40:15;93894.47;;;22.14;76.03
51829;BME280;37881;48.024;8.774;2023-05-23T12:42:50;93892.31;;;22.50;73.07
51829;BME280;37881;48.024;8.774;2023-05-23T12:45:31;93898.56;;;22.19;76.60
51829;BME280;37881;48.024;8.774;2023-05-23T12:48:03;93896.72;;;23.26;70.81
51829;BME280;37881;48.024;8.774;2023-05-23T12:50:30;93905.34;;;23.17;70.04
51829;BME280;37881;48.024;8.774;2023-05-23T12:52:57;93905.84;;;22.57;73.83
51829;BME280;37881;48.024;8.774;2023-05-23T12:55:24;93891.66;;;23.30;71.16
51829;BME280;37881;48.024;8.774;2023-05-23T12:57:50;93895.03;;;23.40;69.75
51829;BME280;37881;48.024;8.774;2023-05-23T13:00:17;93906.06;;;23.11;69.94
51829;BME280;37881;48.024;8.774;2023-05-23T13:02:45;93906.03;;;22.80;70.98
51829;BME280;37881;48.024;8.774;2023-05-23T13:05:14;93905.81;;;23.15;69.87
51829;BME280;37881;48.024;8.774;2023-05-23T13:07:41;93908.69;;;22.37;69.56
51829;BME280;37881;48.024;8.774;2023-05-23T13:10:09;93907.16;;;22.36;68.19
51829;BME280;37881;48.024;8.774;2023-05-23T13:12:36;93900.38;;;23.38;65.82
51829;BME280;37881;48.024;8.774;2023-05-23T13:15:04;93913.84;;;22.70;68.85
51829;BME280;37881;48.024;8.774;2023-05-23T13:17:32;93913.19;;;22.54;71.89
51829;BME280;37881;48.024;8.774;2023-05-23T13:19:59;93914.16;;;22.05;73.51
51829;BME280;37881;48.024;8.774;2023-05-23T13:22:27;93913.19;;;22.28;73.08
51829;BME280;37881;48.024;8.774;2023-05-23T13:24:54;93917.25;;;23.11;68.84
51829;BME280;37881;48.024;8.774;2023-05-23T13:27:21;93914.31;;;23.26;67.00
51829;BME280;37881;48.024;8.774;2023-05-23T13:29:48;93921.03;;;22.77;69.08
51829;BME280;37881;48.024;8.774;2023-05-23T13:32:15;93914.22;;;21.49;71.43